sensor_id;sensor_type;location;lat;lon;timestamp;temperature;humidity
43651;DHT22;29247;50.944;5.382;2023-08-30T00:01:10;16.00;93.30
43651;DHT22;29247;50.944;5.382;2023-08-30T00:03:36;16.00;93.30
43651;DHT22;29247;50.944;5.382;2023-08-30T00:06:03;16.00;93.20
43651;DHT22;29247;50.944;5.382;2023-08-30T00:08:32;16.00;93.20
43651;DHT22;29247;50.944;5.382;2023-08-30T00:10:58;16.00;93.30
43651;DHT22;29247;50.944;5.382;2023-08-30T00:13:31;16.00;93.30
43651;DHT22;29247;50.944;5.382;2023-08-30T00:16:00;15.90;93.10
43651;DHT22;29247;50.944;5.382;2023-08-30T00:18:28;15.80;92.90
43651;DHT22;29247;50.944;5.382;2023-08-30T00:20:53;15.80;92.90
43651;DHT22;29247;50.944;5.382;2023-08-30T00:23:19;15.80;93.00
43651;DHT22;29247;50.944;5.382;2023-08-30T00:25:45;15.80;93.10
43651;DHT22;29247;50.944;5.382;2023-08-30T00:28:10;15.80;93.20
43651;DHT22;29247;50.944;5.382;2023-08-30T00:30:36;15.70;93.20
43651;DHT22;29247;50.944;5.382;2023-08-30T00:33:02;15.70;93.30
43651;DHT22;29247;50.944;5.382;2023-08-30T00:35:27;15.80;93.50
43651;DHT22;29247;50.944;5.382;2023-08-30T00:37:53;15.80;93.60
43651;DHT22;29247;50.944;5.382;2023-08-30T00:40:23;15.80;93.70
43651;DHT22;29247;50.944;5.382;2023-08-30T00:42:49;15.80;93.60
43651;DHT22;29247;50.944;5.382;2023-08-30T00:45:15;15.80;93.60
43651;DHT22;29247;50.944;5.382;2023-08-30T00:47:41;15.80;93.70
43651;DHT22;29247;50.944;5.382;2023-08-30T00:50:09;15.80;93.80
43651;DHT22;29247;50.944;5.382;2023-08-30T00:52:35;15.90;93.90
43651;DHT22;29247;50.944;5.382;2023-08-30T00:55:01;15.90;94.00
43651;DHT22;29247;50.944;5.382;2023-08-30T00:57:26;15.90;94.00
43651;DHT22;29247;50.944;5.382;2023-08-30T00:59:53;15.90;94.00
43651;DHT22;29247;50.944;5.382;2023-08-30T01:02:19;15.90;94.10
43651;DHT22;29247;50.944;5.382;2023-08-30T01:04:45;15.90;94.10
43651;DHT22;29247;50.944;5.382;2023-08-30T01:07:11;15.90;94.10
43651;DHT22;29247;50.944;5.382;2023-08-30T01:09:37;15.90;94.10
43651;DHT22;29247;50.944;5.382;2023-08-30T01:12:20;15.90;94.10
43651;DHT22;29247;50.944;5.382;2023-08-30T01:15:01;15.90;94.10
43651;DHT22;29247;50.944;5.382;2023-08-30T01:17:31;15.90;94.20
43651;DHT22;29247;50.944;5.382;2023-08-30T01:20:06;15.90;94.20
43651;DHT22;29247;50.944;5.382;2023-08-30T01:28:23;15.90;94.40
43651;DHT22;29247;50.944;5.382;2023-08-30T01:30:52;15.90;94.40
43651;DHT22;29247;50.944;5.382;2023-08-30T01:33:24;15.90;94.70
43651;DHT22;29247;50.944;5.382;2023-08-30T01:35:54;15.90;94.50
43651;DHT22;29247;50.944;5.382;2023-08-30T01:38:20;15.90;94.50
43651;DHT22;29247;50.944;5.382;2023-08-30T01:40:47;16.00;94.60
43651;DHT22;29247;50.944;5.382;2023-08-30T01:43:16;16.00;94.60
43651;DHT22;29247;50.944;5.382;2023-08-30T01:45:43;16.00;94.60
43651;DHT22;29247;50.944;5.382;2023-08-30T01:48:14;16.00;94.60
43651;DHT22;29247;50.944;5.382;2023-08-30T01:50:41;16.00;94.60
43651;DHT22;29247;50.944;5.382;2023-08-30T01:53:11;16.00;94.60
43651;DHT22;29247;50.944;5.382;2023-08-30T01:55:37;16.00;94.60
43651;DHT22;29247;50.944;5.382;2023-08-30T01:58:04;16.00;94.70
43651;DHT22;29247;50.944;5.382;2023-08-30T02:00:30;16.00;94.70
43651;DHT22;29247;50.944;5.382;2023-08-30T02:02:56;16.10;94.70
43651;DHT22;29247;50.944;5.382;2023-08-30T02:05:24;16.10;94.70
43651;DHT22;29247;50.944;5.382;2023-08-30T02:08:00;16.10;94.70
43651;DHT22;29247;50.944;5.382;2023-08-30T02:10:34;16.10;94.70
43651;DHT22;29247;50.944;5.382;2023-08-30T02:13:04;16.10;94.60
43651;DHT22;29247;50.944;5.382;2023-08-30T02:15:34;16.10;94.60
43651;DHT22;29247;50.944;5.382;2023-08-30T02:18:03;16.10;94.60
43651;DHT22;29247;50.944;5.382;2023-08-30T02:20:29;16.10;94.50
43651;DHT22;29247;50.944;5.382;2023-08-30T02:22:58;16.10;94.60
43651;DHT22;29247;50.944;5.382;2023-08-30T02:25:25;16.10;94.70
43651;DHT22;29247;50.944;5.382;2023-08-30T02:27:50;16.10;94.70
43651;DHT22;29247;50.944;5.382;2023-08-30T02:30:18;16.10;94.80
43651;DHT22;29247;50.944;5.382;2023-08-30T02:32:44;16.10;94.80
43651;DHT22;29247;50.944;5.382;2023-08-30T02:35:09;16.10;94.80
43651;DHT22;29247;50.944;5.382;2023-08-30T02:37:37;16.10;94.80
43651;DHT22;29247;50.944;5.382;2023-08-30T02:40:08;16.10;94.80
43651;DHT22;29247;50.944;5.382;2023-08-30T02:42:39;16.10;94.80
43651;DHT22;29247;50.944;5.382;2023-08-30T02:45:05;16.10;94.80
43651;DHT22;29247;50.944;5.382;2023-08-30T02:47:30;16.10;94.80
43651;DHT22;29247;50.944;5.382;2023-08-30T02:49:58;16.10;94.80
43651;DHT22;29247;50.944;5.382;2023-08-30T02:52:26;16.10;94.80
43651;DHT22;29247;50.944;5.382;2023-08-30T02:54:52;16.10;94.80
43651;DHT22;29247;50.944;5.382;2023-08-30T02:57:18;16.10;94.80
43651;DHT22;29247;50.944;5.382;2023-08-30T02:59:43;16.10;94.80
43651;DHT22;29247;50.944;5.382;2023-08-30T03:02:11;16.10;94.80
43651;DHT22;29247;50.944;5.382;2023-08-30T03:04:37;16.10;94.70
43651;DHT22;29247;50.944;5.382;2023-08-30T03:07:04;16.10;94.80
43651;DHT22;29247;50.944;5.382;2023-08-30T03:09:29;16.20;94.80
43651;DHT22;29247;50.944;5.382;2023-08-30T03:11:55;16.10;95.10
43651;DHT22;29247;50.944;5.382;2023-08-30T03:14:21;16.20;94.90
43651;DHT22;29247;50.944;5.382;2023-08-30T03:16:47;16.20;94.90
43651;DHT22;29247;50.944;5.382;2023-08-30T03:19:15;16.20;94.90
43651;DHT22;29247;50.944;5.382;2023-08-30T03:21:45;16.20;94.90
43651;DHT22;29247;50.944;5.382;2023-08-30T03:24:10;16.20;94.90
43651;DHT22;29247;50.944;5.382;2023-08-30T03:26:36;16.20;94.90
43651;DHT22;29247;50.944;5.382;2023-08-30T03:29:02;16.20;94.90
43651;DHT22;29247;50.944;5.382;2023-08-30T03:31:28;16.20;94.90
43651;DHT22;29247;50.944;5.382;2023-08-30T03:33:56;16.20;94.90
43651;DHT22;29247;50.944;5.382;2023-08-30T03:36:22;16.20;95.00
43651;DHT22;29247;50.944;5.382;2023-08-30T03:38:48;16.20;95.00
43651;DHT22;29247;50.944;5.382;2023-08-30T03:41:14;16.20;95.00
43651;DHT22;29247;50.944;5.382;2023-08-30T03:43:40;16.20;95.00
43651;DHT22;29247;50.944;5.382;2023-08-30T03:46:05;16.20;95.00
43651;DHT22;29247;50.944;5.382;2023-08-30T03:48:36;16.20;95.00
43651;DHT22;29247;50.944;5.382;2023-08-30T03:51:02;16.20;95.00
43651;DHT22;29247;50.944;5.382;2023-08-30T03:53:30;16.30;95.10
43651;DHT22;29247;50.944;5.382;2023-08-30T03:55:56;16.20;95.10
43651;DHT22;29247;50.944;5.382;2023-08-30T03:58:22;16.30;95.10
43651;DHT22;29247;50.944;5.382;2023-08-30T04:00:50;16.30;95.10
43651;DHT22;29247;50.944;5.382;2023-08-30T04:03:15;16.30;95.20
43651;DHT22;29247;50.944;5.382;2023-08-30T04:05:41;16.30;95.20
43651;DHT22;29247;50.944;5.382;2023-08-30T04:08:08;16.30;95.20
43651;DHT22;29247;50.944;5.382;2023-08-30T04:10:37;16.30;95.20
43651;DHT22;29247;50.944;5.382;2023-08-30T04:13:06;16.30;95.20
43651;DHT22;29247;50.944;5.382;2023-08-30T04:15:35;16.30;95.20
43651;DHT22;29247;50.944;5.382;2023-08-30T04:18:02;16.30;95.20
43651;DHT22;29247;50.944;5.382;2023-08-30T04:20:31;16.30;95.30
43651;DHT22;29247;50.944;5.382;2023-08-30T04:22:58;16.30;95.30
43651;DHT22;29247;50.944;5.382;2023-08-30T04:25:27;16.30;95.30
43651;DHT22;29247;50.944;5.382;2023-08-30T04:27:53;16.40;95.30
43651;DHT22;29247;50.944;5.382;2023-08-30T04:30:23;16.40;95.30
43651;DHT22;29247;50.944;5.382;2023-08-30T04:32:49;16.30;95.30
43651;DHT22;29247;50.944;5.382;2023-08-30T04:35:19;16.40;95.20
43651;DHT22;29247;50.944;5.382;2023-08-30T04:37:47;16.30;95.20
43651;DHT22;29247;50.944;5.382;2023-08-30T04:40:13;16.30;95.30
43651;DHT22;29247;50.944;5.382;2023-08-30T04:42:40;16.30;95.30
43651;DHT22;29247;50.944;5.382;2023-08-30T04:45:06;16.40;95.40
43651;DHT22;29247;50.944;5.382;2023-08-30T04:47:32;16.40;95.40
43651;DHT22;29247;50.944;5.382;2023-08-30T04:49:58;16.40;95.40
43651;DHT22;29247;50.944;5.382;2023-08-30T04:52:24;16.40;95.40
43651;DHT22;29247;50.944;5.382;2023-08-30T04:54:52;16.40;95.40
43651;DHT22;29247;50.944;5.382;2023-08-30T04:57:18;16.40;95.40
43651;DHT22;29247;50.944;5.382;2023-08-30T04:59:48;16.40;95.40
43651;DHT22;29247;50.944;5.382;2023-08-30T05:02:16;16.40;95.40
43651;DHT22;29247;50.944;5.382;2023-08-30T05:04:44;16.40;95.40
43651;DHT22;29247;50.944;5.382;2023-08-30T05:07:10;16.40;95.40
43651;DHT22;29247;50.944;5.382;2023-08-30T05:09:35;16.40;95.40
43651;DHT22;29247;50.944;5.382;2023-08-30T05:12:06;16.40;95.40
43651;DHT22;29247;50.944;5.382;2023-08-30T05:14:34;16.40;95.40
43651;DHT22;29247;50.944;5.382;2023-08-30T05:17:04;16.40;95.50
43651;DHT22;29247;50.944;5.382;2023-08-30T05:19:35;16.40;95.50
43651;DHT22;29247;50.944;5.382;2023-08-30T05:22:00;16.40;95.50
43651;DHT22;29247;50.944;5.382;2023-08-30T05:24:26;16.40;95.40
43651;DHT22;29247;50.944;5.382;2023-08-30T05:26:53;16.40;95.50
43651;DHT22;29247;50.944;5.382;2023-08-30T05:29:19;16.40;95.50
43651;DHT22;29247;50.944;5.382;2023-08-30T05:31:44;16.40;95.70
43651;DHT22;29247;50.944;5.382;2023-08-30T05:34:12;16.40;95.50
43651;DHT22;29247;50.944;5.382;2023-08-30T05:36:43;16.40;95.50
43651;DHT22;29247;50.944;5.382;2023-08-30T05:39:08;16.50;95.50
43651;DHT22;29247;50.944;5.382;2023-08-30T05:41:34;16.50;95.50
43651;DHT22;29247;50.944;5.382;2023-08-30T05:44:04;16.50;95.50
43651;DHT22;29247;50.944;5.382;2023-08-30T05:46:33;16.50;95.40
43651;DHT22;29247;50.944;5.382;2023-08-30T05:48:58;16.50;95.30
43651;DHT22;29247;50.944;5.382;2023-08-30T05:51:26;16.40;95.30
43651;DHT22;29247;50.944;5.382;2023-08-30T05:53:54;16.50;95.60
43651;DHT22;29247;50.944;5.382;2023-08-30T05:56:19;16.50;95.20
43651;DHT22;29247;50.944;5.382;2023-08-30T05:58:45;16.50;95.50
43651;DHT22;29247;50.944;5.382;2023-08-30T06:01:11;16.50;95.10
43651;DHT22;29247;50.944;5.382;2023-08-30T06:03:36;16.50;95.10
43651;DHT22;29247;50.944;5.382;2023-08-30T06:06:02;16.50;95.00
43651;DHT22;29247;50.944;5.382;2023-08-30T06:08:28;16.50;95.00
43651;DHT22;29247;50.944;5.382;2023-08-30T06:10:54;16.50;94.90
43651;DHT22;29247;50.944;5.382;2023-08-30T06:13:20;16.60;94.90
43651;DHT22;29247;50.944;5.382;2023-08-30T06:15:50;16.60;94.80
43651;DHT22;29247;50.944;5.382;2023-08-30T06:18:15;16.60;94.80
43651;DHT22;29247;50.944;5.382;2023-08-30T06:20:42;16.60;94.70
43651;DHT22;29247;50.944;5.382;2023-08-30T06:23:07;16.60;94.60
43651;DHT22;29247;50.944;5.382;2023-08-30T06:25:35;16.70;94.60
43651;DHT22;29247;50.944;5.382;2023-08-30T06:28:01;16.70;94.50
43651;DHT22;29247;50.944;5.382;2023-08-30T06:30:29;16.70;94.50
43651;DHT22;29247;50.944;5.382;2023-08-30T06:32:57;16.70;94.40
43651;DHT22;29247;50.944;5.382;2023-08-30T06:35:23;16.70;94.30
43651;DHT22;29247;50.944;5.382;2023-08-30T06:37:49;16.70;94.30
43651;DHT22;29247;50.944;5.382;2023-08-30T06:40:15;16.70;94.30
43651;DHT22;29247;50.944;5.382;2023-08-30T06:42:42;16.70;94.20
43651;DHT22;29247;50.944;5.382;2023-08-30T06:45:08;16.70;94.20
43651;DHT22;29247;50.944;5.382;2023-08-30T06:47:34;16.80;94.10
43651;DHT22;29247;50.944;5.382;2023-08-30T06:50:02;16.80;94.00
43651;DHT22;29247;50.944;5.382;2023-08-30T06:52:29;16.80;93.90
43651;DHT22;29247;50.944;5.382;2023-08-30T06:54:55;16.80;93.90
43651;DHT22;29247;50.944;5.382;2023-08-30T06:57:21;16.80;93.80
43651;DHT22;29247;50.944;5.382;2023-08-30T06:59:49;16.80;93.70
43651;DHT22;29247;50.944;5.382;2023-08-30T07:02:15;16.80;93.70
43651;DHT22;29247;50.944;5.382;2023-08-30T07:04:43;16.80;93.60
43651;DHT22;29247;50.944;5.382;2023-08-30T07:07:09;16.80;93.50
43651;DHT22;29247;50.944;5.382;2023-08-30T07:09:35;16.90;93.50
43651;DHT22;29247;50.944;5.382;2023-08-30T07:12:00;16.90;93.40
43651;DHT22;29247;50.944;5.382;2023-08-30T07:14:28;16.90;93.30
43651;DHT22;29247;50.944;5.382;2023-08-30T07:16:54;16.90;93.30
43651;DHT22;29247;50.944;5.382;2023-08-30T07:19:22;16.90;93.30
43651;DHT22;29247;50.944;5.382;2023-08-30T07:21:50;16.90;93.30
43651;DHT22;29247;50.944;5.382;2023-08-30T07:24:18;16.90;93.20
43651;DHT22;29247;50.944;5.382;2023-08-30T07:26:48;17.00;93.20
43651;DHT22;29247;50.944;5.382;2023-08-30T07:29:13;17.00;93.10
43651;DHT22;29247;50.944;5.382;2023-08-30T07:31:39;17.00;93.10
43651;DHT22;29247;50.944;5.382;2023-08-30T07:34:06;17.00;93.00
43651;DHT22;29247;50.944;5.382;2023-08-30T07:36:33;17.00;93.00
43651;DHT22;29247;50.944;5.382;2023-08-30T07:39:01;17.00;93.00
43651;DHT22;29247;50.944;5.382;2023-08-30T07:41:27;17.00;93.00
43651;DHT22;29247;50.944;5.382;2023-08-30T07:43:55;17.00;93.00
43651;DHT22;29247;50.944;5.382;2023-08-30T07:46:21;17.10;92.90
43651;DHT22;29247;50.944;5.382;2023-08-30T07:48:47;17.10;92.90
43651;DHT22;29247;50.944;5.382;2023-08-30T07:51:15;17.10;92.80
43651;DHT22;29247;50.944;5.382;2023-08-30T07:53:40;17.10;92.80
43651;DHT22;29247;50.944;5.382;2023-08-30T07:56:08;17.10;92.80
43651;DHT22;29247;50.944;5.382;2023-08-30T07:58:34;17.10;92.80
43651;DHT22;29247;50.944;5.382;2023-08-30T08:01:00;17.20;92.70
43651;DHT22;29247;50.944;5.382;2023-08-30T08:03:28;17.20;93.00
43651;DHT22;29247;50.944;5.382;2023-08-30T08:05:53;17.20;92.60
43651;DHT22;29247;50.944;5.382;2023-08-30T08:08:19;17.20;92.60
43651;DHT22;29247;50.944;5.382;2023-08-30T08:10:47;17.20;92.60
43651;DHT22;29247;50.944;5.382;2023-08-30T08:13:12;17.20;92.60
43651;DHT22;29247;50.944;5.382;2023-08-30T08:15:38;17.20;92.60
43651;DHT22;29247;50.944;5.382;2023-08-30T08:18:04;17.20;92.70
43651;DHT22;29247;50.944;5.382;2023-08-30T08:20:34;17.20;92.70
43651;DHT22;29247;50.944;5.382;2023-08-30T08:23:00;17.20;92.80
43651;DHT22;29247;50.944;5.382;2023-08-30T08:25:25;17.20;92.90
43651;DHT22;29247;50.944;5.382;2023-08-30T08:27:54;17.20;93.00
43651;DHT22;29247;50.944;5.382;2023-08-30T08:30:19;17.20;93.10
43651;DHT22;29247;50.944;5.382;2023-08-30T08:32:46;17.20;93.20
43651;DHT22;29247;50.944;5.382;2023-08-30T08:35:15;17.20;93.30
43651;DHT22;29247;50.944;5.382;2023-08-30T08:37:41;17.20;93.30
43651;DHT22;29247;50.944;5.382;2023-08-30T08:40:07;17.10;93.40
43651;DHT22;29247;50.944;5.382;2023-08-30T08:42:36;17.20;93.60
43651;DHT22;29247;50.944;5.382;2023-08-30T08:45:03;17.10;93.60
43651;DHT22;29247;50.944;5.382;2023-08-30T08:47:30;17.10;93.70
43651;DHT22;29247;50.944;5.382;2023-08-30T08:49:57;17.10;93.90
43651;DHT22;29247;50.944;5.382;2023-08-30T08:52:24;17.10;94.00
43651;DHT22;29247;50.944;5.382;2023-08-30T08:54:50;17.10;94.20
43651;DHT22;29247;50.944;5.382;2023-08-30T08:57:17;17.10;94.30
43651;DHT22;29247;50.944;5.382;2023-08-30T08:59:44;17.10;94.40
43651;DHT22;29247;50.944;5.382;2023-08-30T09:02:14;17.10;94.60
43651;DHT22;29247;50.944;5.382;2023-08-30T09:04:43;17.10;94.70
43651;DHT22;29247;50.944;5.382;2023-08-30T09:07:09;17.10;94.70
43651;DHT22;29247;50.944;5.382;2023-08-30T09:09:37;17.10;94.90
43651;DHT22;29247;50.944;5.382;2023-08-30T09:12:03;17.10;95.00
43651;DHT22;29247;50.944;5.382;2023-08-30T09:14:31;17.10;95.10
43651;DHT22;29247;50.944;5.382;2023-08-30T09:17:02;17.10;95.20
43651;DHT22;29247;50.944;5.382;2023-08-30T09:19:30;17.10;95.20
43651;DHT22;29247;50.944;5.382;2023-08-30T09:21:57;17.10;95.30
43651;DHT22;29247;50.944;5.382;2023-08-30T09:24:23;17.10;95.30
43651;DHT22;29247;50.944;5.382;2023-08-30T09:26:51;17.10;95.40
43651;DHT22;29247;50.944;5.382;2023-08-30T09:29:18;17.10;95.40
43651;DHT22;29247;50.944;5.382;2023-08-30T09:31:45;17.10;95.50
43651;DHT22;29247;50.944;5.382;2023-08-30T09:34:10;17.10;95.50
43651;DHT22;29247;50.944;5.382;2023-08-30T09:36:44;17.10;95.60
43651;DHT22;29247;50.944;5.382;2023-08-30T09:39:16;17.10;95.70
43651;DHT22;29247;50.944;5.382;2023-08-30T09:41:45;17.20;95.80
43651;DHT22;29247;50.944;5.382;2023-08-30T09:46:52;17.20;95.80
43651;DHT22;29247;50.944;5.382;2023-08-30T09:49:20;17.20;96.00
43651;DHT22;29247;50.944;5.382;2023-08-30T09:51:48;17.20;96.00
43651;DHT22;29247;50.944;5.382;2023-08-30T09:56:44;17.20;96.20
43651;DHT22;29247;50.944;5.382;2023-08-30T09:59:16;17.30;96.20
43651;DHT22;29247;50.944;5.382;2023-08-30T10:01:42;17.30;96.20
43651;DHT22;29247;50.944;5.382;2023-08-30T10:04:09;17.30;96.20
43651;DHT22;29247;50.944;5.382;2023-08-30T10:06:41;17.30;96.30
43651;DHT22;29247;50.944;5.382;2023-08-30T10:09:08;17.30;96.30
43651;DHT22;29247;50.944;5.382;2023-08-30T10:11:38;17.30;96.40
43651;DHT22;29247;50.944;5.382;2023-08-30T10:14:05;17.30;96.50
43651;DHT22;29247;50.944;5.382;2023-08-30T10:16:37;17.40;96.60
43651;DHT22;29247;50.944;5.382;2023-08-30T10:19:09;17.40;96.50
43651;DHT22;29247;50.944;5.382;2023-08-30T10:21:36;17.40;96.50
43651;DHT22;29247;50.944;5.382;2023-08-30T10:24:05;17.40;96.50
43651;DHT22;29247;50.944;5.382;2023-08-30T10:26:32;17.40;96.60
43651;DHT22;29247;50.944;5.382;2023-08-30T10:29:01;17.50;96.60
43651;DHT22;29247;50.944;5.382;2023-08-30T10:31:28;17.50;96.70
43651;DHT22;29247;50.944;5.382;2023-08-30T10:33:54;17.50;96.90
43651;DHT22;29247;50.944;5.382;2023-08-30T10:36:23;17.50;96.70
43651;DHT22;29247;50.944;5.382;2023-08-30T10:38:58;17.50;96.80
43651;DHT22;29247;50.944;5.382;2023-08-30T10:41:25;17.50;96.70
43651;DHT22;29247;50.944;5.382;2023-08-30T10:43:54;17.50;96.70
43651;DHT22;29247;50.944;5.382;2023-08-30T10:46:34;17.50;96.70
43651;DHT22;29247;50.944;5.382;2023-08-30T10:49:12;17.50;96.80
43651;DHT22;29247;50.944;5.382;2023-08-30T10:51:41;17.50;96.80
43651;DHT22;29247;50.944;5.382;2023-08-30T10:54:17;17.50;96.50
43651;DHT22;29247;50.944;5.382;2023-08-30T10:56:55;17.50;96.90
43651;DHT22;29247;50.944;5.382;2023-08-30T10:59:23;17.50;97.00
43651;DHT22;29247;50.944;5.382;2023-08-30T11:01:51;17.50;97.10
43651;DHT22;29247;50.944;5.382;2023-08-30T11:04:18;17.50;97.20
43651;DHT22;29247;50.944;5.382;2023-08-30T11:06:45;17.50;97.20
43651;DHT22;29247;50.944;5.382;2023-08-30T11:09:21;17.60;97.40
43651;DHT22;29247;50.944;5.382;2023-08-30T11:11:48;17.60;97.50
43651;DHT22;29247;50.944;5.382;2023-08-30T11:14:17;17.70;97.50
43651;DHT22;29247;50.944;5.382;2023-08-30T11:16:42;17.70;97.90
43651;DHT22;29247;50.944;5.382;2023-08-30T11:19:11;17.80;97.60
43651;DHT22;29247;50.944;5.382;2023-08-30T11:21:39;17.80;97.60
43651;DHT22;29247;50.944;5.382;2023-08-30T11:24:06;17.80;97.70
43651;DHT22;29247;50.944;5.382;2023-08-30T11:26:32;17.90;97.70
43651;DHT22;29247;50.944;5.382;2023-08-30T11:29:03;17.90;97.60
43651;DHT22;29247;50.944;5.382;2023-08-30T11:31:28;17.90;97.60
43651;DHT22;29247;50.944;5.382;2023-08-30T11:33:56;18.00;97.60
43651;DHT22;29247;50.944;5.382;2023-08-30T11:36:25;18.00;97.60
43651;DHT22;29247;50.944;5.382;2023-08-30T11:38:52;18.00;97.60
43651;DHT22;29247;50.944;5.382;2023-08-30T11:41:20;18.00;97.60
43651;DHT22;29247;50.944;5.382;2023-08-30T11:43:47;18.10;98.10
43651;DHT22;29247;50.944;5.382;2023-08-30T11:46:13;18.20;97.90
43651;DHT22;29247;50.944;5.382;2023-08-30T11:48:40;18.20;97.90
43651;DHT22;29247;50.944;5.382;2023-08-30T11:51:08;18.20;97.80
43651;DHT22;29247;50.944;5.382;2023-08-30T11:53:35;18.30;97.70
43651;DHT22;29247;50.944;5.382;2023-08-30T11:56:01;18.30;97.70
43651;DHT22;29247;50.944;5.382;2023-08-30T11:58:36;18.30;97.60
43651;DHT22;29247;50.944;5.382;2023-08-30T12:01:03;18.40;97.60
43651;DHT22;29247;50.944;5.382;2023-08-30T12:03:32;18.40;97.60
43651;DHT22;29247;50.944;5.382;2023-08-30T12:06:00;18.50;97.70
43651;DHT22;29247;50.944;5.382;2023-08-30T12:08:30;18.50;97.70
43651;DHT22;29247;50.944;5.382;2023-08-30T12:10:59;18.50;97.70
43651;DHT22;29247;50.944;5.382;2023-08-30T12:13:27;18.60;97.60
43651;DHT22;29247;50.944;5.382;2023-08-30T12:15:54;18.60;97.40
43651;DHT22;29247;50.944;5.382;2023-08-30T12:18:23;18.60;97.30
43651;DHT22;29247;50.944;5.382;2023-08-30T12:20:57;18.60;97.20
43651;DHT22;29247;50.944;5.382;2023-08-30T12:23:24;18.60;97.10
43651;DHT22;29247;50.944;5.382;2023-08-30T12:28:26;18.60;96.90
43651;DHT22;29247;50.944;5.382;2023-08-30T12:30:53;18.60;96.80
43651;DHT22;29247;50.944;5.382;2023-08-30T12:33:21;18.50;96.80
43651;DHT22;29247;50.944;5.382;2023-08-30T12:35:47;18.50;96.90
43651;DHT22;29247;50.944;5.382;2023-08-30T12:38:13;18.50;96.90
43651;DHT22;29247;50.944;5.382;2023-08-30T12:40:46;18.50;96.90
43651;DHT22;29247;50.944;5.382;2023-08-30T12:43:15;18.50;96.70
43651;DHT22;29247;50.944;5.382;2023-08-30T12:45:41;18.50;96.60
43651;DHT22;29247;50.944;5.382;2023-08-30T12:48:11;18.50;96.60
43651;DHT22;29247;50.944;5.382;2023-08-30T12:50:38;18.50;96.70
43651;DHT22;29247;50.944;5.382;2023-08-30T12:53:07;18.50;96.70
43651;DHT22;29247;50.944;5.382;2023-08-30T12:55:35;18.50;96.90
43651;DHT22;29247;50.944;5.382;2023-08-30T12:58:02;18.50;96.80
43651;DHT22;29247;50.944;5.382;2023-08-30T13:00:28;18.50;96.70
43651;DHT22;29247;50.944;5.382;2023-08-30T13:02:54;18.50;96.70
43651;DHT22;29247;50.944;5.382;2023-08-30T13:05:20;18.50;96.70
43651;DHT22;29247;50.944;5.382;2023-08-30T13:07:52;18.50;96.60
43651;DHT22;29247;50.944;5.382;2023-08-30T13:10:18;18.50;96.60
43651;DHT22;29247;50.944;5.382;2023-08-30T13:12:44;18.50;96.60
43651;DHT22;29247;50.944;5.382;2023-08-30T13:15:10;18.50;96.60
43651;DHT22;29247;50.944;5.382;2023-08-30T13:17:40;18.50;96.50
43651;DHT22;29247;50.944;5.382;2023-08-30T13:20:06;18.50;96.50
43651;DHT22;29247;50.944;5.382;2023-08-30T13:22:34;18.50;96.50
43651;DHT22;29247;50.944;5.382;2023-08-30T13:25:00;18.50;96.50
43651;DHT22;29247;50.944;5.382;2023-08-30T13:27:28;18.50;96.50
43651;DHT22;29247;50.944;5.382;2023-08-30T13:29:54;18.50;96.60
43651;DHT22;29247;50.944;5.382;2023-08-30T13:32:22;18.50;96.60
43651;DHT22;29247;50.944;5.382;2023-08-30T13:34:47;18.50;96.70
43651;DHT22;29247;50.944;5.382;2023-08-30T13:37:13;18.50;96.70
43651;DHT22;29247;50.944;5.382;2023-08-30T13:39:39;18.50;96.90
43651;DHT22;29247;50.944;5.382;2023-08-30T13:42:05;18.50;96.70
43651;DHT22;29247;50.944;5.382;2023-08-30T13:44:31;18.50;96.70
43651;DHT22;29247;50.944;5.382;2023-08-30T13:47:03;18.50;96.80
43651;DHT22;29247;50.944;5.382;2023-08-30T13:49:29;18.50;96.80
43651;DHT22;29247;50.944;5.382;2023-08-30T13:51:56;18.60;96.80
43651;DHT22;29247;50.944;5.382;2023-08-30T13:54:22;18.60;96.60
43651;DHT22;29247;50.944;5.382;2023-08-30T13:56:48;18.70;96.70
43651;DHT22;29247;50.944;5.382;2023-08-30T13:59:13;18.80;96.60
43651;DHT22;29247;50.944;5.382;2023-08-30T14:01:40;18.80;96.30
43651;DHT22;29247;50.944;5.382;2023-08-30T14:04:06;18.90;96.10
43651;DHT22;29247;50.944;5.382;2023-08-30T14:06:32;18.90;95.50
43651;DHT22;29247;50.944;5.382;2023-08-30T14:08:58;19.00;95.30
43651;DHT22;29247;50.944;5.382;2023-08-30T14:11:23;19.00;95.00
43651;DHT22;29247;50.944;5.382;2023-08-30T14:13:49;19.10;94.80
43651;DHT22;29247;50.944;5.382;2023-08-30T14:16:15;19.00;93.80
43651;DHT22;29247;50.944;5.382;2023-08-30T14:18:43;19.00;93.50
43651;DHT22;29247;50.944;5.382;2023-08-30T14:21:12;19.00;93.30
43651;DHT22;29247;50.944;5.382;2023-08-30T14:23:41;19.00;92.50
43651;DHT22;29247;50.944;5.382;2023-08-30T14:26:09;19.00;92.30
43651;DHT22;29247;50.944;5.382;2023-08-30T14:28:39;19.00;92.10
43651;DHT22;29247;50.944;5.382;2023-08-30T14:31:09;19.10;91.60
43651;DHT22;29247;50.944;5.382;2023-08-30T14:33:41;19.00;91.30
43651;DHT22;29247;50.944;5.382;2023-08-30T14:36:10;19.00;90.40
43651;DHT22;29247;50.944;5.382;2023-08-30T14:38:38;19.00;89.30
43651;DHT22;29247;50.944;5.382;2023-08-30T14:41:08;19.00;87.70
43651;DHT22;29247;50.944;5.382;2023-08-30T14:43:34;19.00;85.20
43651;DHT22;29247;50.944;5.382;2023-08-30T14:46:03;19.00;84.00
43651;DHT22;29247;50.944;5.382;2023-08-30T14:48:32;19.00;83.00
43651;DHT22;29247;50.944;5.382;2023-08-30T14:51:04;19.00;83.10
43651;DHT22;29247;50.944;5.382;2023-08-30T14:53:30;19.00;83.10
43651;DHT22;29247;50.944;5.382;2023-08-30T14:55:58;19.00;82.90
43651;DHT22;29247;50.944;5.382;2023-08-30T14:58:24;19.00;82.60
43651;DHT22;29247;50.944;5.382;2023-08-30T15:00:50;19.10;81.90
43651;DHT22;29247;50.944;5.382;2023-08-30T15:03:16;19.10;82.30
43651;DHT22;29247;50.944;5.382;2023-08-30T15:05:45;19.10;83.00
43651;DHT22;29247;50.944;5.382;2023-08-30T15:08:19;19.20;82.50
43651;DHT22;29247;50.944;5.382;2023-08-30T15:10:47;19.20;82.60
43651;DHT22;29247;50.944;5.382;2023-08-30T15:13:17;19.20;82.30
43651;DHT22;29247;50.944;5.382;2023-08-30T15:15:42;19.30;81.20
43651;DHT22;29247;50.944;5.382;2023-08-30T15:18:10;19.30;81.10
43651;DHT22;29247;50.944;5.382;2023-08-30T15:20:36;19.30;81.10
43651;DHT22;29247;50.944;5.382;2023-08-30T15:23:04;19.30;81.10
43651;DHT22;29247;50.944;5.382;2023-08-30T15:25:32;19.30;80.60
43651;DHT22;29247;50.944;5.382;2023-08-30T15:27:58;19.20;80.20
43651;DHT22;29247;50.944;5.382;2023-08-30T15:30:28;19.20;80.10
43651;DHT22;29247;50.944;5.382;2023-08-30T15:32:54;19.20;80.00
43651;DHT22;29247;50.944;5.382;2023-08-30T15:35:19;19.20;78.70
43651;DHT22;29247;50.944;5.382;2023-08-30T15:37:45;19.20;79.20
43651;DHT22;29247;50.944;5.382;2023-08-30T15:40:11;19.20;79.40
43651;DHT22;29247;50.944;5.382;2023-08-30T15:42:36;19.20;79.40
43651;DHT22;29247;50.944;5.382;2023-08-30T15:45:03;19.20;78.80